Kezdőlap
METAR-TAF:

METAR-TAF

Repülőterek :

Joensuu, Finnország

földrajzi szélesség: 62-40N, földrajzi hosszúság: 029-38E, magasság: 119 m

Jelenlegi meteorológiai megfigyelések

A jelentés 20 perccel ezelõtt készült, 22:20 UTC
Dél-délnyugati szél 5 kt
Hőmérséklet 4°C
Páratartalom 100%
Légköri nyomás 1011 hPa
Látótávolság 10 km, vagy több
Szakadozott felhőzet 300 lábon
Borult 2500 lábon

METAR: EFJO 132220Z 21005KT 9999 BKN003 OVC025 04/04 Q1011

Idő: 00:40 (22:40 UTC)

Előrejelzés

A jelentés 2 órával és 12 perccel ezelõtt készült, 20:28 UTC
Az előrejelzés 13-én 21 óra UTC és 13-én 24 óra UTC között érvényes
Déli szél 4 kt
Látótávolság 10 km, vagy több
Borult 200 lábon
enyhe szitálás
13-én 21 óra UTC és 13-én 24 óra UTC között ideiglenes
Látótávolság: 2000 m
Borult 700 lábon
Párásság

TAF: EFJO 132028Z 1321/1324 18004KT 9999 -DZ OVC002 TEMPO 1321/1324 2000 BR OVC007

Meteorológiai megfigyelések és előrejelzések több, mint 4000 repülőtéren (METAR és TAF jelentéseket).

A térképen piros és sárga pontok jelzik az elérhető meteorológiai állomásokat.

Mozgassa az egeret a pont fölött, hogy megjelenjen az állomás neve.

Azután kattintson az időjárási megfigyelések és előrejelzések megtekintéséhez.

A térkép megváltoztatása: kattintson a fekete keresztel jelölt zöld gombra ráközelítéshez, a vonallal jelölt zöld gombra távolításhoz, vagy a zöld nyilakra a szomszédos térképek eléréséhez.


METAR-TAF: